A- A+ FrançaisEnglishEspañol中国

le plus proche LFBT Tarbes-Lourdes-PyrénéesLFJR Angers MarceLFNA Gap-Tallard LFPT Pontoise-Cormeilles-En-Vexin

manche à air

La météo aéronautique pour les pilotes, la préparation du vol avec les METAR (METeorological Aerodrome Report, message d'observation des conditions météorologiques pour l'aviation) et Les TAF (Terminal Aerodrome Forecast : message de prévision à court terme des conditions météorologiques pour l'aviation). Et les autres ressources comme les VAC (Visual Approch Chart) et les NOTAM (Notice To Airman) pour préprer les vols.

Aéroport Campbeltown (Royaume-Uni) / OACI EGEC/ IATA CAL

L'altitude de l'aéroport Campbeltown est de 13 m=43 ft. Il est situé à proximité de Campbeltown (Royaume-Uni). La météo générale à 5 jours est disponible pour Carradale situé à 21.6 km.

METAR de l'aéroport Campbeltown - EGEC

EGEC 291650Z 31008KT 9999 FEW013 14/12 Q1002

Décodage du METAR de l'aéroport Campbeltown (GB)

METAR émis par EGEC le dimanche 29 septembre 2019 à 16:50 heure TU. Attention ce METAR est obsolète car il a été émis il y a 13 heure et 58 minutes.

La visibilité est de supérieure à 10 km=supérieure à 6.2 sm.

La température est de 14°C=57 °F et le point rosée est de 12°C=54 °F . Ce qui correspond à 88% d'humidité relative.

Le QNH est de 1002 hPa=29.59 inHg

Vent de 8 kt=15 km/h, orienté à 310°.

Nuages : Quelques nuages à 1300 ft=400 mètres.

TAF de l'aéroport Campbeltown - EGEC

EGEC 291401Z 2915/2918 33012KT 9999 SCT016 PROB40 TEMPO 2915/2918 6000 SHRA BKN014

EGEC 291401Z 2915/2918 33012KT 9999 nuages épars à 016 probabilité de 40% d'avoir temporairement 2915/2918 6000 SHRA couverture nuageuse fragmentée à 014

Aéroport à proximité de Campbeltown

Météo générale à 5 jours à Carradale (21.6 km)EGPI Aéroport Islay (45 km)EGPK Aéroport Prestwick (70 km)EGAC Aéroport Belfast City (92 km)EGPF Aéroport Glasgow (92 km)EGAA Aéroport Belfast - Aldergrove (93 km)EGAD Aéroport Newtownards (95 km)

Vue aérienne de l'aéroport Campbeltown

NOTAM de l'aéroport Campbeltown

Les NOTAM sont fournis sans aucune garantie de leur actualité. Le pilote est le seul responsable de la vérification de sa validité avant de l'utiliser opérationnellement pour préparer un vol ou l'utiliser lors de sa navigation.

Pas de NOTAM

Sources des données